Time;durP1;ratioP1;P1;durP2;ratioP2;P2;SDS_P1;SDS_P2;PMS_P1;PMS_P2;Temp;Humidity;BMP_temperature;BMP_pressure;BME280_temperature;BME280_humidity;BME280_pressure;Samples;Min_cycle;Max_cycle;Signal;HPM_P1;HPM_P2
2023/10/12 00:01:59;;;;;;;12.80;4.00;;;;;;;;;;4980331;28;20072;-86
2023/10/12 00:04:43;;;;;;;11.13;3.90;;;;;;;;;;4979628;28;20053;-85
2023/10/12 00:07:15;;;;;;;8.40;3.65;;;;;;;;;;4972095;28;20050;-85
2023/10/12 00:09:49;;;;;;;12.65;3.55;;;;;;;;;;4981180;28;20051;-86
2023/10/12 00:12:21;;;;;;;12.55;3.85;;;;;;;;;;4980951;28;20054;-85
2023/10/12 00:14:48;;;;;;;15.93;4.07;;;;;;;;;;4981125;28;20073;-85
2023/10/12 00:17:18;;;;;;;13.65;4.35;;;;;;;;;;4971954;28;20047;-85
2023/10/12 00:19:47;;;;;;;15.18;3.72;;;;;;;;;;4973033;28;20516;-85
2023/10/12 00:22:15;;;;;;;15.27;4.10;;;;;;;;;;4980960;28;20054;-86
2023/10/12 00:24:43;;;;;;;12.73;3.75;;;;;;;;;;4989107;28;20078;-84
2023/10/12 00:27:15;;;;;;;14.73;3.80;;;;;;;;;;4970930;28;20046;-85
2023/10/12 00:29:48;;;;;;;9.35;3.13;;;;;;;;;;4973051;28;20125;-86
2023/10/12 00:32:15;;;;;;;;;;;;;;;;;;4974952;28;20077;-85
2023/10/12 00:34:47;;;;;;;10.35;3.83;;;;;;;;;;4970834;28;19922;-86
2023/10/12 00:37:14;;;;;;;17.55;3.88;;;;;;;;;;4976769;28;20047;-86
2023/10/12 00:42:20;;;;;;;9.52;3.35;;;;;;;;;;5000784;28;20046;-87
2023/10/12 00:44:49;;;;;;;18.90;3.83;;;;;;;;;;4985515;28;20514;-87
2023/10/12 00:47:29;;;;;;;14.23;3.78;;;;;;;;;;4997193;28;20034;-85
2023/10/12 00:49:58;;;;;;;8.70;3.50;;;;;;;;;;4993507;28;20042;-86
2023/10/12 00:52:35;;;;;;;9.60;3.38;;;;;;;;;;4976703;28;20051;-86
2023/10/12 00:55:21;;;;;;;11.57;4.25;;;;;;;;;;4978375;28;20492;-86
2023/10/12 00:57:51;;;;;;;10.30;3.60;;;;;;;;;;4969173;28;20398;-87
2023/10/12 01:00:20;;;;;;;13.23;3.55;;;;;;;;;;4984324;28;20050;-86
2023/10/12 01:03:06;;;;;;;13.00;3.78;;;;;;;;;;4995779;28;20070;-85
2023/10/12 01:05:37;;;;;;;11.65;3.63;;;;;;;;;;4978072;28;20464;-85
2023/10/12 01:08:04;;;;;;;12.43;4.28;;;;;;;;;;4995610;28;20050;-86
2023/10/12 01:10:32;;;;;;;11.65;3.83;;;;;;;;;;4975207;28;20101;-86
2023/10/12 01:13:00;;;;;;;11.00;3.45;;;;;;;;;;4981697;28;20046;-86
2023/10/12 01:15:30;;;;;;;14.73;4.13;;;;;;;;;;4978087;28;20060;-85
2023/10/12 01:17:58;;;;;;;14.75;4.00;;;;;;;;;;4974854;28;20123;-86
2023/10/12 01:20:36;;;;;;;14.05;4.63;;;;;;;;;;4993957;28;20047;-87
2023/10/12 01:23:03;;;;;;;14.63;3.90;;;;;;;;;;4978941;28;20112;-85
2023/10/12 01:25:34;;;;;;;9.73;3.38;;;;;;;;;;4977670;28;20466;-86
2023/10/12 01:28:06;;;;;;;14.98;3.95;;;;;;;;;;4974873;28;20097;-85
2023/10/12 01:30:36;;;;;;;12.00;3.92;;;;;;;;;;4986187;28;20046;-85
2023/10/12 01:33:04;;;;;;;9.15;3.70;;;;;;;;;;4978898;28;20042;-86
2023/10/12 01:35:38;;;;;;;10.95;3.50;;;;;;;;;;4977925;28;20046;-85
2023/10/12 01:38:08;;;;;;;13.13;4.05;;;;;;;;;;4974610;28;20498;-86
2023/10/12 01:40:54;;;;;;;11.45;3.72;;;;;;;;;;4978172;28;20053;-82
2023/10/12 01:43:23;;;;;;;13.93;3.80;;;;;;;;;;4976606;28;20082;-86
2023/10/12 01:46:01;;;;;;;10.35;3.95;;;;;;;;;;4978563;28;20104;-87
2023/10/12 01:48:33;;;;;;;13.52;4.10;;;;;;;;;;4978142;28;20054;-86
2023/10/12 01:51:04;;;;;;;13.30;4.25;;;;;;;;;;4978307;28;20085;-85
2023/10/12 01:53:32;;;;;;;10.50;3.60;;;;;;;;;;4977522;28;20132;-86
2023/10/12 01:55:59;;;;;;;9.68;3.80;;;;;;;;;;4974541;28;20051;-86
2023/10/12 01:58:27;;;;;;;9.60;4.13;;;;;;;;;;4984691;28;20085;-86
2023/10/12 02:01:04;;;;;;;16.40;4.05;;;;;;;;;;4994760;28;20082;-85
2023/10/12 02:03:42;;;;;;;12.45;3.80;;;;;;;;;;4994021;28;20522;-85
2023/10/12 02:06:14;;;;;;;13.13;3.90;;;;;;;;;;4977753;28;20137;-85
2023/10/12 02:13:47;;;;;;;9.63;3.70;;;;;;;;;;4994862;28;20112;-85
2023/10/12 02:16:26;;;;;;;10.20;3.90;;;;;;;;;;4993396;28;20500;-85
2023/10/12 02:18:53;;;;;;;11.30;4.13;;;;;;;;;;4989839;28;20046;-86
2023/10/12 02:21:22;;;;;;;10.48;4.00;;;;;;;;;;5006121;28;20097;-86
2023/10/12 02:23:57;;;;;;;9.60;3.97;;;;;;;;;;4993192;28;20046;-85
2023/10/12 02:26:29;;;;;;;14.65;4.93;;;;;;;;;;4993021;28;20050;-85
2023/10/12 02:31:34;;;;;;;8.95;3.53;;;;;;;;;;4994196;28;20113;-86
2023/10/12 02:34:02;;;;;;;10.70;3.63;;;;;;;;;;4994180;28;20042;-85
2023/10/12 02:36:30;;;;;;;12.40;4.30;;;;;;;;;;4991938;28;20050;-86
2023/10/12 02:39:01;;;;;;;15.35;3.92;;;;;;;;;;4992922;28;20493;-85
2023/10/12 02:41:28;;;;;;;21.98;4.88;;;;;;;;;;4993034;28;20046;-86
2023/10/12 02:44:11;;;;;;;9.32;3.63;;;;;;;;;;4990020;28;20046;-85
2023/10/12 02:46:42;;;;;;;7.75;3.70;;;;;;;;;;5002054;28;20086;-84
2023/10/12 02:49:13;;;;;;;15.35;3.85;;;;;;;;;;4993124;28;20053;-83
2023/10/12 02:51:40;;;;;;;11.18;4.00;;;;;;;;;;4986290;28;20489;-85
2023/10/12 02:54:07;;;;;;;13.00;4.28;;;;;;;;;;4993273;28;20122;-84
2023/10/12 02:56:35;;;;;;;8.48;3.78;;;;;;;;;;4982267;28;20085;-84
2023/10/12 02:59:08;;;;;;;9.63;3.90;;;;;;;;;;4990568;28;20062;-85
2023/10/12 03:01:38;;;;;;;10.93;4.15;;;;;;;;;;4994173;28;20104;-84
2023/10/12 03:04:10;;;;;;;11.90;4.65;;;;;;;;;;4993823;28;20058;-85
2023/10/12 03:06:52;;;;;;;9.63;4.53;;;;;;;;;;4985592;28;20121;-84
2023/10/12 03:09:26;;;;;;;9.40;3.65;;;;;;;;;;4993375;28;20118;-84
2023/10/12 03:11:56;;;;;;;12.77;4.13;;;;;;;;;;4997613;28;20065;-85
2023/10/12 03:14:26;;;;;;;8.07;4.00;;;;;;;;;;4994562;28;20046;-85
2023/10/12 03:17:02;;;;;;;5.93;3.67;;;;;;;;;;5001952;28;20130;-85
2023/10/12 03:19:35;;;;;;;13.60;4.50;;;;;;;;;;5000723;28;20061;-85
2023/10/12 03:22:19;;;;;;;10.48;4.30;;;;;;;;;;5000988;28;20504;-85
2023/10/12 03:24:51;;;;;;;10.75;4.38;;;;;;;;;;4993756;28;20053;-84
2023/10/12 03:27:22;;;;;;;10.25;4.10;;;;;;;;;;5002488;28;20081;-85
2023/10/12 03:30:07;;;;;;;13.23;4.50;;;;;;;;;;5003652;28;20082;-85
2023/10/12 03:32:34;;;;;;;9.43;4.55;;;;;;;;;;5019911;28;20050;-84
2023/10/12 03:35:04;;;;;;;10.38;4.65;;;;;;;;;;5013876;28;20050;-84
2023/10/12 03:37:50;;;;;;;8.13;4.40;;;;;;;;;;4996804;28;20484;-84
2023/10/12 03:40:50;;;;;;;10.77;4.80;;;;;;;;;;4997078;28;20046;-83
2023/10/12 03:43:25;;;;;;;8.80;4.32;;;;;;;;;;4997294;28;20042;-84
2023/10/12 03:48:48;;;;;;;17.35;7.40;;;;;;;;;;4997467;28;20057;-84
2023/10/12 03:53:56;;;;;;;9.38;4.65;;;;;;;;;;4998117;28;20054;-83
2023/10/12 03:56:28;;;;;;;14.18;4.55;;;;;;;;;;4997332;28;20137;-84
2023/10/12 03:58:59;;;;;;;17.08;5.00;;;;;;;;;;4996833;28;20116;-85
2023/10/12 04:01:35;;;;;;;20.60;6.65;;;;;;;;;;4995891;28;20050;-84
2023/10/12 04:04:45;;;;;;;21.38;8.40;;;;;;;;;;4996528;28;20077;-85
2023/10/12 04:07:16;;;;;;;11.03;4.60;;;;;;;;;;4990925;28;20046;-84
2023/10/12 04:09:43;;;;;;;10.73;5.43;;;;;;;;;;4990465;28;20293;-85
2023/10/12 04:14:48;;;;;;;10.15;4.45;;;;;;;;;;4997260;28;20419;-84
2023/10/12 04:20:14;;;;;;;14.00;4.57;;;;;;;;;;4997346;28;20125;-85
2023/10/12 04:23:04;;;;;;;9.55;4.00;;;;;;;;;;4988780;28;20145;-85
2023/10/12 04:33:29;;;;;;;13.93;4.60;;;;;;;;;;4996581;28;20085;-84
2023/10/12 04:36:10;;;;;;;14.82;4.22;;;;;;;;;;4995361;28;20532;-83
2023/10/12 04:43:52;;;;;;;14.23;4.28;;;;;;;;;;4998213;28;20043;-81
2023/10/12 04:49:01;;;;;;;9.80;4.20;;;;;;;;;;4997644;28;20051;-84
2023/10/12 04:51:30;;;;;;;14.63;4.53;;;;;;;;;;4995719;28;20050;-84
2023/10/12 04:54:04;;;;;;;10.05;4.50;;;;;;;;;;4996609;28;20062;-84
2023/10/12 04:56:36;;;;;;;23.77;4.85;;;;;;;;;;4997677;28;20058;-85
2023/10/12 04:59:19;;;;;;;14.63;4.53;;;;;;;;;;4997682;28;20046;-82
2023/10/12 05:05:14;;;;;;;15.00;4.55;;;;;;;;;;4937343;29;20052;-85
2023/10/12 05:07:56;;;;;;;14.23;5.03;;;;;;;;;;4986887;28;20144;-84
2023/10/12 05:10:46;;;;;;;18.33;4.35;;;;;;;;;;4978880;28;20054;-84
2023/10/12 05:13:21;;;;;;;9.32;3.97;;;;;;;;;;4979947;28;20050;-85
2023/10/12 05:16:02;;;;;;;11.25;4.00;;;;;;;;;;4978602;28;20054;-81
2023/10/12 05:18:31;;;;;;;10.85;3.97;;;;;;;;;;4979448;28;20534;-84
2023/10/12 05:21:00;;;;;;;20.15;4.32;;;;;;;;;;4971226;28;20077;-84
2023/10/12 05:23:29;;;;;;;9.85;3.88;;;;;;;;;;4979287;28;20054;-84
2023/10/12 05:28:31;;;;;;;13.45;4.38;;;;;;;;;;4995954;28;20050;-85
2023/10/12 05:33:43;;;;;;;14.50;5.63;;;;;;;;;;4980126;28;20098;-84
2023/10/12 05:36:11;;;;;;;12.30;4.68;;;;;;;;;;4975086;28;20472;-83
2023/10/12 05:38:48;;;;;;;17.10;4.68;;;;;;;;;;4977093;28;20159;-84
2023/10/12 05:44:02;;;;;;;15.48;4.47;;;;;;;;;;4994956;28;20051;-85
2023/10/12 05:46:32;;;;;;;22.88;7.13;;;;;;;;;;4976771;28;20407;-83
2023/10/12 05:49:01;;;;;;;8.55;4.10;;;;;;;;;;4977619;28;20046;-84
2023/10/12 05:51:29;;;;;;;14.40;5.05;;;;;;;;;;4976574;28;20062;-85
2023/10/12 05:54:02;;;;;;;13.73;5.80;;;;;;;;;;4977480;28;20057;-85
2023/10/12 05:56:32;;;;;;;17.08;5.13;;;;;;;;;;4978245;28;20058;-85
2023/10/12 05:59:00;;;;;;;10.70;5.00;;;;;;;;;;4980991;28;20074;-86
2023/10/12 06:01:34;;;;;;;14.32;4.75;;;;;;;;;;4979838;28;20050;-85
2023/10/12 06:04:08;;;;;;;11.27;4.97;;;;;;;;;;4976717;28;20101;-84
2023/10/12 06:06:41;;;;;;;10.55;4.50;;;;;;;;;;4972258;28;20061;-86
2023/10/12 06:09:12;;;;;;;;;;;;;;;;;;4993726;28;20054;-86
2023/10/12 06:11:41;;;;;;;6.72;4.68;;;;;;;;;;4984989;28;20387;-85
2023/10/12 06:14:09;;;;;;;11.18;5.05;;;;;;;;;;4991630;28;20046;-87
2023/10/12 06:16:40;;;;;;;9.65;4.68;;;;;;;;;;4990304;28;20117;-87
2023/10/12 06:19:26;;;;;;;14.07;6.10;;;;;;;;;;5012500;28;20055;-88
2023/10/12 06:22:13;;;;;;;13.85;9.68;;;;;;;;;;5022926;28;20046;-85
2023/10/12 06:24:44;;;;;;;22.98;10.07;;;;;;;;;;4997005;28;20050;-86
2023/10/12 06:30:03;;;;;;;22.50;8.70;;;;;;;;;;4994373;28;20058;-86
2023/10/12 06:32:33;;;;;;;16.42;8.32;;;;;;;;;;4993687;28;20058;-87
2023/10/12 06:45:52;;;;;;;9.30;5.72;;;;;;;;;;4987287;28;20050;-86
2023/10/12 06:53:35;;;;;;;14.00;5.10;;;;;;;;;;4997975;28;20046;-86
2023/10/12 06:56:16;;;;;;;10.15;5.18;;;;;;;;;;4997564;28;20148;-87
2023/10/12 06:59:09;;;;;;;13.30;5.93;;;;;;;;;;4997191;28;20073;-86
2023/10/12 07:01:51;;;;;;;12.50;6.22;;;;;;;;;;4998450;28;20051;-86
2023/10/12 07:04:38;;;;;;;13.13;5.95;;;;;;;;;;4997154;28;20052;-86
2023/10/12 07:07:11;;;;;;;12.40;6.32;;;;;;;;;;4997141;28;20050;-87
2023/10/12 07:09:46;;;;;;;17.42;6.25;;;;;;;;;;4969629;28;20082;-86
2023/10/12 07:12:20;;;;;;;16.52;7.03;;;;;;;;;;4986044;28;20054;-87
2023/10/12 07:14:52;;;;;;;16.98;6.88;;;;;;;;;;4980305;28;20141;-85
2023/10/12 07:17:32;;;;;;;13.80;7.05;;;;;;;;;;4977383;28;20075;-86
2023/10/12 07:20:00;;;;;;;14.50;8.52;;;;;;;;;;4979410;28;20500;-86
2023/10/12 07:22:27;;;;;;;12.38;6.60;;;;;;;;;;4979735;28;20051;-86
2023/10/12 07:24:56;;;;;;;11.52;5.97;;;;;;;;;;4979798;28;20042;-86
2023/10/12 07:27:24;;;;;;;13.68;6.80;;;;;;;;;;4979520;28;20049;-86
2023/10/12 07:30:15;;;;;;;14.65;5.60;;;;;;;;;;4996853;28;20109;-86
2023/10/12 07:32:54;;;;;;;10.70;5.32;;;;;;;;;;4979724;28;20518;-85
2023/10/12 07:35:32;;;;;;;9.82;5.32;;;;;;;;;;4981084;28;20070;-87
2023/10/12 07:37:59;;;;;;;10.88;5.43;;;;;;;;;;4980148;28;20145;-86
2023/10/12 07:40:34;;;;;;;13.85;5.35;;;;;;;;;;4981111;28;20054;-86
2023/10/12 07:43:06;;;;;;;8.77;5.15;;;;;;;;;;4981027;28;20407;-88
2023/10/12 07:45:48;;;;;;;10.75;4.57;;;;;;;;;;4979404;28;20073;-85
2023/10/12 07:48:30;;;;;;;11.50;5.45;;;;;;;;;;4979963;28;20105;-85
2023/10/12 07:51:15;;;;;;;8.90;4.93;;;;;;;;;;4979811;28;20074;-88
2023/10/12 07:53:49;;;;;;;10.95;5.43;;;;;;;;;;4969160;28;20054;-86
2023/10/12 07:56:18;;;;;;;15.07;5.50;;;;;;;;;;4961793;28;20133;-86
2023/10/12 07:58:50;;;;;;;16.85;6.53;;;;;;;;;;4979117;28;20047;-86
2023/10/12 08:02:08;;;;;;;18.92;7.55;;;;;;;;;;4960993;28;20134;-87
2023/10/12 08:04:28;;;;;;;37.72;15.43;;;;;;;;;;4983806;28;20057;-86
2023/10/12 08:06:57;;;;;;;31.65;12.70;;;;;;;;;;4961756;28;20143;-86
2023/10/12 08:11:54;;;;;;;10.65;4.95;;;;;;;;;;4992734;28;20441;-88
2023/10/12 08:20:12;;;;;;;9.30;4.32;;;;;;;;;;4975345;28;20118;-87
2023/10/12 08:22:41;;;;;;;9.60;4.80;;;;;;;;;;4996097;28;20043;-88
2023/10/12 08:25:14;;;;;;;14.00;5.03;;;;;;;;;;5002524;28;20037;-88
2023/10/12 08:27:53;;;;;;;25.23;11.88;;;;;;;;;;4987881;28;20122;-87
2023/10/12 08:30:24;;;;;;;21.48;13.52;;;;;;;;;;5002228;28;20053;-87
2023/10/12 08:33:14;;;;;;;13.57;7.45;;;;;;;;;;4983302;28;20460;-86
2023/10/12 08:38:40;;;;;;;12.63;5.03;;;;;;;;;;4990591;28;20051;-88
2023/10/12 08:44:09;;;;;;;10.25;4.47;;;;;;;;;;4967628;28;20054;-87
2023/10/12 08:52:40;;;;;;;12.85;4.55;;;;;;;;;;4985219;28;20429;-88
2023/10/12 08:55:11;;;;;;;14.52;4.10;;;;;;;;;;4982013;28;20054;-87
2023/10/12 08:58:01;;;;;;;8.43;5.13;;;;;;;;;;4984191;28;20058;-87
2023/10/12 09:03:24;;;;;;;11.35;4.15;;;;;;;;;;4998513;28;20054;-87
2023/10/12 09:05:58;;;;;;;;;;;;;;;;;;4992162;28;20055;-87
2023/10/12 09:11:03;;;;;;;15.20;3.92;;;;;;;;;;4998837;28;20062;-86
2023/10/12 09:13:33;;;;;;;8.82;3.63;;;;;;;;;;4992948;28;20113;-88
2023/10/12 09:16:02;;;;;;;14.82;3.70;;;;;;;;;;4992496;28;20054;-86
2023/10/12 09:18:35;;;;;;;11.57;3.83;;;;;;;;;;5002497;28;20843;-88
2023/10/12 09:23:46;;;;;;;12.10;3.75;;;;;;;;;;4996823;28;21625;-89
2023/10/12 09:26:30;;;;;;;10.20;3.97;;;;;;;;;;4989449;28;20066;-87
2023/10/12 09:36:38;;;;;;;7.28;3.40;;;;;;;;;;4980627;28;20046;-88
2023/10/12 09:39:11;;;;;;;8.25;3.78;;;;;;;;;;5016757;28;20415;-87
2023/10/12 09:41:40;;;;;;;11.10;4.88;;;;;;;;;;5005752;28;20085;-87
2023/10/12 09:44:25;;;;;;;17.65;4.25;;;;;;;;;;4981335;28;20138;-87
2023/10/12 09:46:55;;;;;;;6.38;3.40;;;;;;;;;;4986042;28;20109;-87
2023/10/12 09:49:29;;;;;;;8.80;4.40;;;;;;;;;;5000477;28;20046;-88
2023/10/12 09:51:56;;;;;;;;;;;;;;;;;;4981356;28;20093;-87
2023/10/12 09:54:28;;;;;;;8.02;3.90;;;;;;;;;;4986071;28;19922;-87
2023/10/12 09:57:16;;;;;;;9.27;4.03;;;;;;;;;;4992209;28;20055;-87
2023/10/12 10:00:18;;;;;;;14.73;3.65;;;;;;;;;;4990884;28;20042;-87
2023/10/12 10:02:49;;;;;;;9.98;3.60;;;;;;;;;;5002759;28;20450;-87
2023/10/12 10:05:28;;;;;;;9.98;3.80;;;;;;;;;;4984307;28;20081;-87
2023/10/12 10:07:59;;;;;;;8.93;3.83;;;;;;;;;;4980313;28;20058;-87
2023/10/12 10:10:34;;;;;;;7.40;3.58;;;;;;;;;;4986294;28;20047;-86
2023/10/12 10:13:39;;;;;;;10.75;3.88;;;;;;;;;;4984824;28;20057;-86
2023/10/12 10:16:10;;;;;;;9.77;3.88;;;;;;;;;;4994620;28;20046;-87
2023/10/12 10:18:47;;;;;;;11.15;4.80;;;;;;;;;;4995524;28;20081;-87
2023/10/12 10:21:19;;;;;;;11.88;4.43;;;;;;;;;;4996314;28;20116;-87
2023/10/12 10:23:49;;;;;;;13.52;4.78;;;;;;;;;;4990767;28;20511;-87
2023/10/12 10:26:30;;;;;;;15.23;4.93;;;;;;;;;;4998882;28;20047;-87
2023/10/12 10:29:04;;;;;;;14.93;4.25;;;;;;;;;;4983310;28;20137;-87
2023/10/12 10:31:34;;;;;;;11.40;4.50;;;;;;;;;;4995459;28;20054;-87
2023/10/12 10:34:06;;;;;;;5.80;4.28;;;;;;;;;;4994276;28;20074;-87
2023/10/12 10:36:36;;;;;;;9.73;4.38;;;;;;;;;;4985136;28;20065;-87
2023/10/12 10:44:13;;;;;;;8.93;4.30;;;;;;;;;;4977791;28;20050;-87
2023/10/12 10:46:43;;;;;;;8.70;4.35;;;;;;;;;;4987672;28;20059;-87
2023/10/12 10:49:17;;;;;;;8.82;4.38;;;;;;;;;;4975323;28;20520;-86
2023/10/12 10:51:48;;;;;;;;;;;;;;;;;;4994923;28;20108;-86
2023/10/12 10:54:19;;;;;;;8.32;4.20;;;;;;;;;;4977591;28;20401;-87
2023/10/12 10:56:47;;;;;;;9.95;4.25;;;;;;;;;;4975453;28;20055;-87
2023/10/12 10:59:18;;;;;;;12.45;4.60;;;;;;;;;;4990153;28;20043;-87
2023/10/12 11:01:49;;;;;;;9.95;4.10;;;;;;;;;;4997231;28;20077;-86
2023/10/12 11:07:11;;;;;;;9.35;4.15;;;;;;;;;;5005564;28;20077;-86
2023/10/12 11:12:21;;;;;;;12.18;4.07;;;;;;;;;;4984641;28;20407;-86
2023/10/12 11:14:58;;;;;;;7.28;3.92;;;;;;;;;;4982587;28;20059;-87
2023/10/12 11:17:30;;;;;;;8.18;4.05;;;;;;;;;;4981016;28;20054;-87
2023/10/12 11:20:00;;;;;;;11.80;3.85;;;;;;;;;;4981505;28;20097;-83
2023/10/12 11:22:30;;;;;;;9.13;4.13;;;;;;;;;;4994173;28;20140;-85
2023/10/12 11:24:58;;;;;;;13.57;4.47;;;;;;;;;;4990744;28;20132;-85
2023/10/12 11:27:30;;;;;;;7.57;3.75;;;;;;;;;;4984745;28;20130;-87
2023/10/12 11:30:07;;;;;;;8.23;3.58;;;;;;;;;;4985796;28;20504;-87
2023/10/12 11:32:53;;;;;;;7.32;3.53;;;;;;;;;;4983441;28;20146;-88
2023/10/12 11:35:43;;;;;;;8.32;4.03;;;;;;;;;;4982898;28;20101;-86
2023/10/12 11:38:17;;;;;;;11.32;4.32;;;;;;;;;;4989442;28;20055;-83
2023/10/12 11:40:52;;;;;;;7.40;3.75;;;;;;;;;;4984495;28;20134;-87
2023/10/12 11:43:21;;;;;;;10.95;3.95;;;;;;;;;;4985759;28;20062;-89
2023/10/12 11:46:05;;;;;;;10.43;3.90;;;;;;;;;;4988609;28;20057;-87
2023/10/12 11:48:32;;;;;;;9.57;4.15;;;;;;;;;;4997584;28;20047;-88
2023/10/12 11:51:00;;;;;;;15.07;3.72;;;;;;;;;;4995829;28;20061;-87
2023/10/12 11:53:28;;;;;;;8.00;3.53;;;;;;;;;;4985466;28;20050;-86
2023/10/12 11:58:38;;;;;;;12.77;4.43;;;;;;;;;;4982057;28;20050;-85
2023/10/12 12:01:08;;;;;;;9.68;4.15;;;;;;;;;;4988580;28;20034;-87
2023/10/12 12:03:45;;;;;;;5.85;3.30;;;;;;;;;;4989322;28;20066;-86
2023/10/12 12:06:20;;;;;;;10.30;3.75;;;;;;;;;;4989891;28;20042;-87
2023/10/12 12:08:49;;;;;;;11.80;4.10;;;;;;;;;;4995927;28;20466;-86
2023/10/12 12:11:20;;;;;;;9.27;3.72;;;;;;;;;;4995800;28;20069;-87
2023/10/12 12:13:48;;;;;;;9.88;3.67;;;;;;;;;;4998046;28;20030;-86
2023/10/12 12:16:20;;;;;;;12.40;4.13;;;;;;;;;;4986940;28;20450;-88
2023/10/12 12:18:53;;;;;;;6.72;3.47;;;;;;;;;;4987961;28;20057;-87
2023/10/12 12:21:31;;;;;;;12.65;3.85;;;;;;;;;;4986270;28;20039;-87
2023/10/12 12:26:46;;;;;;;9.20;3.97;;;;;;;;;;4996121;28;20070;-87
2023/10/12 12:29:22;;;;;;;12.55;4.90;;;;;;;;;;4988498;28;20047;-87
2023/10/12 12:31:50;;;;;;;7.38;3.50;;;;;;;;;;4996768;28;20038;-86
2023/10/12 12:35:02;;;;;;;7.88;4.40;;;;;;;;;;4993195;28;20074;-87
2023/10/12 12:37:11;;;;;;;10.18;3.58;;;;;;;;;;4993877;28;20043;-86
2023/10/12 12:39:38;;;;;;;9.05;3.63;;;;;;;;;;4982724;28;20100;-88
2023/10/12 12:42:09;;;;;;;8.95;3.80;;;;;;;;;;5010109;28;20034;-87
2023/10/12 12:44:37;;;;;;;7.70;3.33;;;;;;;;;;5013517;28;20046;-87
2023/10/12 12:47:06;;;;;;;8.02;3.22;;;;;;;;;;4993536;28;20460;-88
2023/10/12 12:49:34;;;;;;;6.43;3.80;;;;;;;;;;4990984;28;20512;-85
2023/10/12 12:52:05;;;;;;;9.15;3.78;;;;;;;;;;5009140;28;20058;-86
2023/10/12 12:54:35;;;;;;;8.68;3.65;;;;;;;;;;4997454;28;20068;-85
2023/10/12 12:57:04;;;;;;;11.93;4.07;;;;;;;;;;4992208;28;20051;-87
2023/10/12 12:59:31;;;;;;;12.85;3.45;;;;;;;;;;5006964;28;20145;-87
2023/10/12 13:02:02;;;;;;;10.80;4.38;;;;;;;;;;4986294;28;20047;-85
2023/10/12 13:04:30;;;;;;;7.75;3.53;;;;;;;;;;4990755;28;20050;-86
2023/10/12 13:07:07;;;;;;;11.57;3.55;;;;;;;;;;4998540;28;20074;-86
2023/10/12 13:09:36;;;;;;;7.32;3.42;;;;;;;;;;4991195;28;20065;-87
2023/10/12 13:12:05;;;;;;;7.32;4.03;;;;;;;;;;4998649;28;20050;-85
2023/10/12 13:14:32;;;;;;;17.55;4.25;;;;;;;;;;4992336;28;20051;-84
2023/10/12 13:17:00;;;;;;;10.27;4.18;;;;;;;;;;5006843;28;20496;-85
2023/10/12 13:19:31;;;;;;;11.45;4.30;;;;;;;;;;4991756;28;20050;-86
2023/10/12 13:21:59;;;;;;;12.60;4.30;;;;;;;;;;4991489;28;20679;-85
2023/10/12 13:24:28;;;;;;;12.80;4.03;;;;;;;;;;4996170;28;20053;-85
2023/10/12 13:26:55;;;;;;;8.88;3.55;;;;;;;;;;4993537;28;20407;-85
2023/10/12 13:29:22;;;;;;;12.65;4.85;;;;;;;;;;4991285;28;20046;-85
2023/10/12 13:31:50;;;;;;;11.50;3.83;;;;;;;;;;4993391;28;20121;-86
2023/10/12 13:34:19;;;;;;;11.35;4.60;;;;;;;;;;4995074;28;20050;-85
2023/10/12 13:36:47;;;;;;;11.30;4.47;;;;;;;;;;4997864;28;20053;-86
2023/10/12 13:39:15;;;;;;;22.70;4.97;;;;;;;;;;4996842;28;20050;-86
2023/10/12 13:41:42;;;;;;;11.60;3.80;;;;;;;;;;4995240;28;20046;-86
2023/10/12 13:44:09;;;;;;;9.95;4.00;;;;;;;;;;4992070;28;20113;-86
2023/10/12 13:46:38;;;;;;;14.15;4.22;;;;;;;;;;4998364;28;20118;-86
2023/10/12 13:49:11;;;;;;;10.00;3.80;;;;;;;;;;4995724;28;20129;-86
2023/10/12 13:51:47;;;;;;;7.80;3.92;;;;;;;;;;4996992;28;20134;-87
2023/10/12 13:54:15;;;;;;;8.37;4.27;;;;;;;;;;4996147;28;20416;-85
2023/10/12 13:56:48;;;;;;;7.97;3.90;;;;;;;;;;4994274;28;20046;-86
2023/10/12 13:59:16;;;;;;;9.45;4.22;;;;;;;;;;4993446;28;20054;-87
2023/10/12 14:01:43;;;;;;;9.68;3.92;;;;;;;;;;4989363;28;20393;-85
2023/10/12 14:04:28;;;;;;;6.70;4.05;;;;;;;;;;5006685;28;20495;-84
2023/10/12 14:07:01;;;;;;;12.18;4.35;;;;;;;;;;4996981;28;20084;-86
2023/10/12 14:09:31;;;;;;;7.13;3.80;;;;;;;;;;4991309;28;20097;-85
2023/10/12 14:11:59;;;;;;;8.98;4.10;;;;;;;;;;4989239;28;20051;-85
2023/10/12 14:14:27;;;;;;;8.57;4.20;;;;;;;;;;5009584;28;20070;-85
2023/10/12 14:16:54;;;;;;;9.30;3.95;;;;;;;;;;4993302;28;20464;-86
2023/10/12 14:19:25;;;;;;;11.50;4.03;;;;;;;;;;5007063;28;20444;-86
2023/10/12 14:21:54;;;;;;;9.63;4.45;;;;;;;;;;5005877;28;20134;-86
2023/10/12 14:24:23;;;;;;;7.50;3.63;;;;;;;;;;5006201;28;20062;-86
2023/10/12 14:26:55;;;;;;;8.80;3.92;;;;;;;;;;5010156;28;20064;-86
2023/10/12 14:29:24;;;;;;;12.38;4.63;;;;;;;;;;4993410;28;20093;-86
2023/10/12 14:31:54;;;;;;;7.03;3.58;;;;;;;;;;4994778;28;20046;-86
2023/10/12 14:34:22;;;;;;;8.27;4.20;;;;;;;;;;4994841;28;20050;-86
2023/10/12 14:36:49;;;;;;;7.43;3.97;;;;;;;;;;4995898;28;20491;-86
2023/10/12 14:39:23;;;;;;;7.68;4.20;;;;;;;;;;4995224;28;20054;-83
2023/10/12 14:41:51;;;;;;;;;;;;;;;;;;4993142;28;20550;-84
2023/10/12 14:44:19;;;;;;;30.48;5.57;;;;;;;;;;5009787;28;19922;-85
2023/10/12 14:46:50;;;;;;;12.90;5.10;;;;;;;;;;4992289;28;20051;-87
2023/10/12 14:49:17;;;;;;;14.57;4.50;;;;;;;;;;4992935;28;20479;-86
2023/10/12 14:51:45;;;;;;;10.85;4.63;;;;;;;;;;4994834;28;20062;-86
2023/10/12 14:54:12;;;;;;;12.77;4.82;;;;;;;;;;4994005;28;20137;-86
2023/10/12 14:56:42;;;;;;;10.02;4.53;;;;;;;;;;4994002;28;20050;-86
2023/10/12 14:59:11;;;;;;;10.57;4.47;;;;;;;;;;4995177;28;20061;-85
2023/10/12 15:01:38;;;;;;;11.13;5.07;;;;;;;;;;4994277;28;20050;-86
2023/10/12 15:04:07;;;;;;;9.70;5.18;;;;;;;;;;4995740;28;20057;-85
2023/10/12 15:06:35;;;;;;;7.53;4.45;;;;;;;;;;4995312;28;20062;-86
2023/10/12 15:09:10;;;;;;;7.80;5.07;;;;;;;;;;4993081;28;20051;-86
2023/10/12 15:11:37;;;;;;;8.68;5.13;;;;;;;;;;4990544;28;20116;-85
2023/10/12 15:14:06;;;;;;;10.52;5.32;;;;;;;;;;4994897;28;20061;-86
2023/10/12 15:16:33;;;;;;;11.38;5.15;;;;;;;;;;5012436;28;20058;-86
2023/10/12 15:19:08;;;;;;;14.02;5.40;;;;;;;;;;4997101;28;20057;-87
2023/10/12 15:21:36;;;;;;;7.65;4.85;;;;;;;;;;4998878;28;20056;-86
2023/10/12 15:24:04;;;;;;;11.30;5.60;;;;;;;;;;5000123;28;20043;-87
2023/10/12 15:26:32;;;;;;;9.13;4.78;;;;;;;;;;4998938;28;20050;-87
2023/10/12 15:28:59;;;;;;;7.95;5.13;;;;;;;;;;4999701;28;20050;-87
2023/10/12 15:31:29;;;;;;;13.77;5.25;;;;;;;;;;5007444;28;20598;-86
2023/10/12 15:33:57;;;;;;;10.65;5.03;;;;;;;;;;5003296;28;20047;-84
2023/10/12 15:36:25;;;;;;;11.95;5.57;;;;;;;;;;5002515;28;20073;-87
2023/10/12 15:38:53;;;;;;;12.95;5.13;;;;;;;;;;5000757;28;20051;-86
2023/10/12 15:41:21;;;;;;;10.02;5.60;;;;;;;;;;5026212;28;20038;-85
2023/10/12 15:43:49;;;;;;;13.38;6.15;;;;;;;;;;5007553;28;20077;-85
2023/10/12 15:46:17;;;;;;;11.32;5.20;;;;;;;;;;5007055;28;20050;-85
2023/10/12 15:48:46;;;;;;;11.45;5.25;;;;;;;;;;4993292;28;20061;-86
2023/10/12 15:51:19;;;;;;;8.57;5.93;;;;;;;;;;5005913;28;20087;-88
2023/10/12 15:53:48;;;;;;;14.38;5.72;;;;;;;;;;5012316;28;20062;-85
2023/10/12 15:56:16;;;;;;;9.48;5.63;;;;;;;;;;4996708;28;20054;-86
2023/10/12 15:58:52;;;;;;;12.18;6.30;;;;;;;;;;4997502;28;20536;-86
2023/10/12 16:01:19;;;;;;;11.40;6.22;;;;;;;;;;4995350;28;20051;-86
2023/10/12 16:03:47;;;;;;;11.18;6.10;;;;;;;;;;4995795;28;20054;-84
2023/10/12 16:06:15;;;;;;;10.52;5.65;;;;;;;;;;4995197;28;20057;-85
2023/10/12 16:08:44;;;;;;;14.00;5.65;;;;;;;;;;4995222;28;20069;-81
2023/10/12 16:11:16;;;;;;;18.10;6.72;;;;;;;;;;4992606;28;20094;-86
2023/10/12 16:13:45;;;;;;;11.75;5.75;;;;;;;;;;4995589;28;20497;-86
2023/10/12 16:16:13;;;;;;;11.90;5.97;;;;;;;;;;4995325;28;20484;-84
2023/10/12 16:18:41;;;;;;;12.48;6.10;;;;;;;;;;4997503;28;20112;-86
2023/10/12 16:21:10;;;;;;;14.05;5.75;;;;;;;;;;4995792;28;20093;-85
2023/10/12 16:23:37;;;;;;;16.00;6.35;;;;;;;;;;4989100;28;20046;-86
2023/10/12 16:26:07;;;;;;;17.35;6.43;;;;;;;;;;4988415;28;20047;-86
2023/10/12 16:28:34;;;;;;;13.07;6.03;;;;;;;;;;4995403;28;20073;-85
2023/10/12 16:31:01;;;;;;;13.20;5.93;;;;;;;;;;4995766;28;20051;-86
2023/10/12 16:33:35;;;;;;;11.45;6.07;;;;;;;;;;4995520;28;20050;-86
2023/10/12 16:36:06;;;;;;;22.52;6.75;;;;;;;;;;4995360;28;20097;-80
2023/10/12 16:38:34;;;;;;;16.75;6.70;;;;;;;;;;4994160;28;20479;-85
2023/10/12 16:41:03;;;;;;;9.02;5.45;;;;;;;;;;4993670;28;20042;-86
2023/10/12 16:43:33;;;;;;;13.80;5.97;;;;;;;;;;4989471;28;20456;-82
2023/10/12 16:46:00;;;;;;;9.85;6.20;;;;;;;;;;4993602;28;20057;-86
2023/10/12 16:48:31;;;;;;;10.45;5.97;;;;;;;;;;5011113;28;20050;-83
2023/10/12 16:50:59;;;;;;;14.93;5.65;;;;;;;;;;4995572;28;20046;-85
2023/10/12 16:53:29;;;;;;;11.40;5.57;;;;;;;;;;4997510;28;20455;-86
2023/10/12 16:55:58;;;;;;;11.60;6.25;;;;;;;;;;4996842;28;20058;-84
2023/10/12 16:58:27;;;;;;;13.80;5.22;;;;;;;;;;4994441;28;20082;-84
2023/10/12 17:00:56;;;;;;;10.27;6.18;;;;;;;;;;5005914;28;20455;-80
2023/10/12 17:03:23;;;;;;;11.60;5.55;;;;;;;;;;4999896;28;20133;-85
2023/10/12 17:05:55;;;;;;;13.10;6.13;;;;;;;;;;5000018;28;20113;-84